Aérodrome :
LOGIN :

S'inscrire | Disclaimer

   EN    FR    IT 

 










Légende :    VFR   VFR Marginal   IFR   IFR Intensif   IFR Très Intensif
Visi : 
Plafond : 
>= 8 km
>= 3000ft
5 à 8 km
1000 à 3000 ft
1500m à 5 km
500 à 1000 ft
800 à 1500m
200 à 500 ft
< 800m
< 200 ft
Symboles :   Orages  Brouillard  Fortes neiges  Fortes précipitations  Vent > 20 kt
SIGMETs :   Divers  Orages  Givrage  Turbulence  Onde Orograph.  Cendres Volcan.






- Altitude de l'aérodrome : 468 ft
- Code IATA : GRO


LEGE - Girona Costa Brava

DERNIER METAR :
  • 270630Z 27002KT CAVOK 04/04 Q1015

METARs EXPIRÉS :
  • 270600Z 20003KT 180V250 CAVOK 04/04 Q1015
  • 270530Z 04001KT CAVOK 04/04 Q1015
  • 270500Z VRB01KT CAVOK 04/04 Q1015
  • 270430Z 00000KT CAVOK 04/04 Q1015
  • 270400Z VRB01KT 9999 FEW024 04/04 Q1014

TAF TAF LEGE
Valide du 27 à 06h jusqu'au 28 à 06h UTC


270500Z 2706/2806 30006KT 9999 SCT030 TX20/2714Z TN09/2806Z
BECMG 2710/2712 18010KT
BECMG 2717/2719 VRB03KT



MET'MAP, la Météo Aéronautique d'un coup d'oeil ! - Copyright ORBIFLY Décembre 2007 - Disclaimer

ORBIFLY MET'MAP TEAM :

Programmation & Développement : Alexandra Zaïnal
Sur une idée originale de : Baudouin d'Aumeries
Assistance à la programmation : Marc-Olivier Méhu
Soutien technique & logistique : Manuel Goepfert

Contact : metmap@orbifly.com




SOURCES & CREDITS :

   NOAA